マイアミ の空港の天気 - METARとTAF

マイアミ国際空港 ( KMIA / MIA ) - アメリカ フロリダ州マイアミ
飛行場実況気象(Metar)
観測時間08/05 03:53 EDT (08/05 07:53 UTC)
風向・風速南東 3m/s
視程10km以上
天気現象
少しの雲 雲底高度 550m
全天の4割程度の雲 雲底高度 3050m
全天の4割程度の雲 雲底高度 5180m
全天の8割程度の雲 雲底高度 7620m
気温26.1℃
湿度97%
気圧1014.8hPa
METARKMIA 050753Z 13005KT 10SM FEW018 SCT100 SCT170 BKN250 26/26 A2997 RMK AO2 SLP148 T02610256
過去の天気等 Google飛行場航空写真 Wunderground天気予報

過去48時間のMETAR

飛行場予報(TAF)
発表時間: 8/05 01:20 EDT (8/05 05:20 UTC)
予報対象時間: 5日2時 EDT ~ 6日8時 EDT
風向・風速不定 2m/s
視程10km以上
少しの雲 雲底高度 910m
少しの雲 雲底高度 4570m
全天の4割程度の雲 雲底高度 7620m
5日10時 EDT から
風向・風速南南東 3m/s
視程10km以上
天気現象周辺でしゅう雨
全天の4割程度の雲 雲底高度 760m
全天の8割程度の雲 雲底高度 1830m
5日12時 EDT から
風向・風速南東 4m/s
視程10km以上
天気現象周辺で雷
全天の4割程度の積乱雲 雲底高度 760m
全天の8割程度の雲 雲底高度 1370m
5日22時 EDT から
風向・風速東南東 3m/s
視程10km以上
全天の4割程度の雲 雲底高度 730m
全天の4割程度の雲 雲底高度 7620m
KMIA 050520Z 0506/0612 VRB04KT P6SM FEW030 FEW150 SCT250
FM051400 15006KT P6SM VCSH SCT025 BKN060
FM051600 13008KT P6SM VCTS SCT025CB BKN045
FM060200 11005KT P6SM SCT024 SCT250